Terminal Aerodrome Forecast
Issued by NWS

Current Version | Previous Version | Graphics & Text | Print | Product List | Glossary On
Versions: 1 2 3 4 5 6 7 8 9 10 11 12 13 14 15 16 17 18 19 20 21 22 23
000
FTUS41 KRLX 150545
TAFCKB
TAF
KCKB 150545Z 1506/1606 22012G20KT P6SM OVC015
     FM150900 23007KT P6SM OVC010
     FM151300 23008KT P6SM OVC008
     FM151800 24009KT P6SM OVC010
     FM152000 23009KT 5SM +RA OVC015
     FM160000 22010KT 2SM +RA OVC015
     FM160200 23012G23KT 2SM +RA OVC015=

USA.gov is the U.S. government's official web portal to all federal, state and local government web resources and services.